createdAt,value
2017-06-16T08:55:37.628Z,1013.977
2017-06-16T09:00:26.275Z,1013.965
2017-06-16T09:08:16.129Z,1013.891
2017-06-16T09:11:00.984Z,1013.895
2017-06-16T09:13:55.849Z,1013.922
2017-06-16T09:16:51.212Z,1013.964
2017-06-16T09:19:46.795Z,1013.969
2017-06-16T09:22:42.225Z,1014.024
2017-06-16T09:28:33.282Z,1013.979
2017-06-16T09:31:28.713Z,1014.002
2017-06-16T09:34:24.024Z,1014.013
2017-06-16T09:37:19.368Z,1013.941
2017-06-16T09:40:14.800Z,1013.992
2017-06-16T09:43:10.255Z,1014.024
2017-06-16T09:46:05.757Z,1014.045
2017-06-16T09:49:01.094Z,1014.103
2017-06-16T09:51:56.346Z,1014.099
2017-06-16T09:54:51.610Z,1014.117
2017-06-16T09:57:46.940Z,1014.145
2017-06-16T10:00:42.423Z,1014.136
2017-06-16T10:03:38.034Z,1014.101
2017-06-16T10:06:33.675Z,1014.111
2017-06-16T10:09:29.762Z,1014.009
2017-06-16T10:12:25.613Z,1013.985
2017-06-16T10:15:21.355Z,1013.898
2017-06-16T10:18:17.112Z,1013.972
2017-06-16T10:21:12.687Z,1013.842
2017-06-16T10:24:08.322Z,1013.864
2017-06-16T10:27:03.959Z,1013.825
2017-06-16T10:29:59.421Z,1013.853
2017-06-16T10:32:54.959Z,1013.870
2017-06-16T10:35:50.434Z,1013.842
2017-06-16T10:38:45.845Z,1013.920
2017-06-16T10:41:41.306Z,1013.897
2017-06-16T10:44:36.880Z,1013.912
2017-06-16T10:47:32.369Z,1013.965
2017-06-16T10:50:27.864Z,1013.904
2017-06-16T10:53:23.158Z,1013.910
2017-06-16T10:56:18.612Z,1013.790
2017-06-16T10:59:14.110Z,1013.838
2017-06-16T11:02:09.585Z,1013.906
2017-06-16T11:05:04.874Z,1014.202
2017-06-16T11:08:00.198Z,1014.259
2017-06-16T11:10:55.506Z,1014.111
2017-06-16T11:13:50.788Z,1014.066
2017-06-16T11:16:46.094Z,1014.046
2017-06-16T11:19:41.430Z,1014.017
2017-06-16T11:22:36.623Z,1014.275
2017-06-16T12:01:41.221Z,1014.187
2017-06-16T12:04:24.930Z,1014.199
2017-06-16T12:07:19.008Z,1014.188
2017-06-16T12:10:13.710Z,1014.191
2017-06-16T12:13:08.581Z,1014.266
2017-06-16T12:16:03.623Z,1014.258
2017-06-16T12:18:58.729Z,1014.288
2017-06-16T12:21:53.801Z,1014.422
2017-06-16T12:24:48.932Z,1014.478
2017-06-16T12:27:44.066Z,1014.594
2017-06-16T12:30:39.245Z,1014.624
2017-06-16T12:33:34.242Z,1014.667
2017-06-16T12:36:29.305Z,1014.597
2017-06-16T12:39:24.262Z,1014.509
2017-06-16T12:42:19.150Z,1014.501
2017-06-16T12:45:14.162Z,1014.517
2017-06-16T12:48:09.093Z,1014.551
2017-06-16T12:51:04.058Z,1014.447
2017-06-16T12:53:58.918Z,1014.432
2017-06-16T12:56:53.887Z,1014.431
2017-06-16T12:59:48.828Z,1014.514
2017-06-16T13:02:43.828Z,1014.418
2017-06-16T13:08:28.230Z,1014.502
2017-06-16T13:11:12.644Z,1014.631
2017-06-16T13:14:07.070Z,1014.740
2017-06-16T13:17:01.834Z,1014.984
2017-06-16T15:56:49.021Z,1014.404
2017-06-16T15:59:32.292Z,1014.317
2017-06-16T16:02:26.161Z,1014.337
2017-06-16T16:05:20.595Z,1014.411
2017-06-16T16:08:15.211Z,1014.377
2017-06-16T16:11:09.941Z,1014.435
2017-06-16T16:14:04.693Z,1014.406
2017-06-16T16:22:27.132Z,1014.468
2017-06-16T16:25:10.823Z,1014.502
2017-06-16T16:28:05.000Z,1014.552
2017-06-16T16:30:59.533Z,1014.559
2017-06-16T16:33:54.320Z,1014.601
2017-06-16T16:36:49.163Z,1014.626
2017-06-16T16:39:43.988Z,1014.584
2017-06-16T16:42:38.811Z,1014.618
2017-06-16T16:45:33.716Z,1014.638
2017-06-16T16:48:28.786Z,1014.569
2017-06-16T16:51:23.663Z,1014.603
2017-06-16T16:54:18.652Z,1014.817
2017-06-16T16:57:13.564Z,1014.792
2017-06-16T17:00:08.373Z,1014.827
2017-06-16T17:03:37.156Z,1014.816
2017-06-16T17:06:24.014Z,1014.835
2017-06-16T17:09:18.752Z,1014.827
2017-06-16T17:15:08.505Z,1014.849
2017-06-16T17:18:03.421Z,1014.902
2017-06-16T17:20:58.286Z,1014.976
2017-06-16T17:23:53.166Z,1015.057
2017-06-16T17:26:48.064Z,1015.064
2017-06-16T17:29:43.068Z,1015.136
2017-06-16T17:32:37.987Z,1015.154
2017-06-16T17:35:33.026Z,1015.144
2017-06-16T17:38:27.829Z,1015.199
2017-06-16T17:41:45.309Z,1015.288
2017-06-16T17:44:33.271Z,1015.273
2017-06-16T17:47:28.151Z,1015.334
2017-06-16T17:52:04.665Z,1015.368
2017-06-16T17:54:49.337Z,1015.404
2017-06-16T18:01:29.753Z,1015.346
2017-06-16T18:04:47.657Z,1015.353
2017-06-16T18:08:07.746Z,1015.437
2017-06-16T18:12:13.318Z,1015.528
2017-06-16T18:14:58.061Z,1015.484
2017-06-16T18:17:52.440Z,1015.493
2017-06-16T18:20:47.208Z,1015.584
2017-06-16T18:23:41.886Z,1015.615
2017-06-16T18:26:36.699Z,1015.672
2017-06-16T18:29:31.495Z,1015.726
2017-06-16T18:32:26.479Z,1015.765
2017-06-16T18:35:21.346Z,1015.768
2017-06-16T18:38:16.261Z,1015.750
2017-06-16T18:44:06.040Z,1015.893
2017-06-16T18:47:00.875Z,1015.891
2017-06-16T18:49:55.629Z,1015.973
2017-06-16T18:52:51.102Z,1016.013
2017-06-16T18:55:46.007Z,1016.037
2017-06-16T18:58:40.925Z,1016.032
2017-06-16T19:01:35.701Z,1016.089
2017-06-16T19:04:30.511Z,1016.101
2017-06-16T19:07:25.473Z,1016.166
2017-06-16T19:10:20.585Z,1016.219
2017-06-16T19:13:15.873Z,1016.224
2017-06-16T19:16:10.932Z,1016.315
2017-06-16T19:19:05.901Z,1016.288
2017-06-16T19:22:00.900Z,1016.417
2017-06-16T19:24:55.800Z,1016.439
2017-06-16T19:30:45.624Z,1016.474
2017-06-16T19:33:40.573Z,1016.584
2017-06-16T19:36:35.519Z,1016.619
2017-06-16T19:39:30.448Z,1016.625
2017-06-16T19:42:25.625Z,1016.662
2017-06-16T19:45:20.462Z,1016.724
2017-06-16T19:48:15.355Z,1016.779
2017-06-16T19:51:10.264Z,1016.827
2017-06-16T19:54:05.315Z,1016.827
2017-06-16T19:59:55.258Z,1016.895
2017-06-16T20:02:50.246Z,1016.906
2017-06-16T20:05:45.165Z,1016.920
2017-06-16T20:08:40.122Z,1016.938
2017-06-16T20:11:35.114Z,1016.943
2017-06-16T20:14:30.014Z,1016.984
2017-06-16T20:17:24.815Z,1017.041
2017-06-16T20:20:19.598Z,1017.046
2017-06-16T20:23:14.398Z,1017.126
2017-06-16T20:26:09.281Z,1017.169
2017-06-16T20:29:04.216Z,1017.166
2017-06-16T20:31:58.981Z,1017.187
2017-06-16T20:34:53.872Z,1017.218
2017-06-16T20:37:48.643Z,1017.267
2017-06-16T20:40:43.475Z,1017.293
2017-06-16T20:44:12.282Z,1017.344
2017-06-16T20:46:59.027Z,1017.314
2017-06-16T20:49:53.612Z,1017.315
2017-06-16T20:52:48.533Z,1017.325
2017-06-16T20:55:43.284Z,1017.362
2017-06-16T20:58:49.509Z,1017.412
2017-06-16T21:01:39.407Z,1017.412
2017-06-16T21:07:46.292Z,1017.516
2017-06-16T21:10:30.448Z,1017.524
2017-06-16T21:13:24.679Z,1017.602
2017-06-16T21:16:19.286Z,1017.645
2017-06-16T21:19:36.647Z,1017.655
2017-06-16T21:22:24.613Z,1017.656
2017-06-16T21:26:04.634Z,1017.635
2017-06-16T21:29:24.474Z,1017.633
2017-06-16T21:32:45.137Z,1017.662
2017-06-16T21:38:26.102Z,1017.718
2017-06-16T21:51:18.084Z,1017.767
2017-06-16T21:54:01.762Z,1017.847
2017-06-16T21:56:55.732Z,1017.828
2017-06-16T21:59:50.212Z,1017.914
2017-06-16T22:05:11.775Z,1017.967
2017-06-16T22:12:27.355Z,1018.002
2017-06-16T22:15:22.382Z,1017.974
2017-06-16T22:23:05.354Z,1018.019
2017-06-16T22:25:49.011Z,1018.030
2017-06-16T22:28:42.858Z,1018.049
2017-06-16T22:33:18.966Z,1018.036
2017-06-16T23:00:43.804Z,1018.139
